Airfield :
LOGIN :

Register | Disclaimer

   EN    FR    IT 

 










Legend :    VFR   Marginal VFR   IFR   Intensive IFR   Very Intensive IFR
Visi :
Ceiling :
>= 8 km
>= 3000ft
5 to 8 km
1000 to 3000 ft
1500m to 5 km
500 to 1000 ft
800 to 1500m
200 to 500 ft
< 800m
< 200 ft
Symbols :   Thunderstorms  Fog  Heavy snow  Heavy precipitations  Wind > 20 kt
SIGMETs :     Misc.  Thunderstorms  Icing  Turbulence  Mountain Waves  Volcanic Ashes







- Airport Elevation : 479 ft
- IATA code : DOL
- Download approach charts


LFRG - Deauville

CURRENT METAR :
  • 220400Z AUTO 34002KT 9999 2800 SCT024 BKN130 09/08 Q1021

EXPIRED METARs :
  • 220330Z AUTO VRB03KT 9999 FEW025 10/08 Q1021
  • 220300Z AUTO 36003KT 9999 SCT023 BKN029 BKN140 12/09 Q1021
  • 220230Z AUTO 36003KT 9999 SCT023 SCT031 12/10 Q1021
  • 220200Z AUTO 36004KT 9999 BKN023 BKN031 13/10 Q1020
  • 220130Z AUTO 35004KT 310V030 9999 SCT021 OVC030 13/11 Q1020

Expired Forecast.
ATIS : +33 2 31 65 65 36
No reported NOTAMs for that airfield.



MET'MAP, your aeronautical weather chart ! - Copyright ORBIFLY December 2007 - Disclaimer

ORBIFLY MET'MAP TEAM :

Programming & Development : Alexandra Zaïnal
Concept & Development : Baudouin d'Aumeries
Co-Development & Prog : Marc-Olivier Méhu
Technical & hardware support : Manuel Goepfert

Contact : metmap@orbifly.com




SOURCES & CREDITS :

   NOAA